Time;durP1;ratioP1;P1;durP2;ratioP2;P2;SDS_P1;SDS_P2;PMS_P1;PMS_P2;Temp;Humidity;BMP_temperature;BMP_pressure;BME280_temperature;BME280_humidity;BME280_pressure;Samples;Min_cycle;Max_cycle;Signal;HPM_P1;HPM_P2
2022/07/08 00:01:37;;;;;;;14.88;2.13;;;14.90;99.90;;;;;;5058876;28;20510;-70
2022/07/08 00:04:02;;;;;;;7.93;1.75;;;15.00;99.90;;;;;;5076553;28;20498;-70
2022/07/08 00:06:28;;;;;;;7.53;2.00;;;14.90;99.90;;;;;;5074617;28;20119;-70
2022/07/08 00:08:54;;;;;;;6.95;1.40;;;15.10;99.90;;;;;;5075972;28;20036;-70
2022/07/08 00:11:20;;;;;;;5.20;1.50;;;15.00;99.90;;;;;;5078667;28;20061;-70
2022/07/08 00:13:45;;;;;;;6.18;2.28;;;14.90;99.90;;;;;;5090352;28;20086;-70
2022/07/08 00:16:11;;;;;;;7.30;1.58;;;14.90;99.90;;;;;;5074813;28;20052;-70
2022/07/08 00:18:36;;;;;;;9.35;1.90;;;14.80;99.90;;;;;;5076115;28;20384;-70
2022/07/08 00:21:02;;;;;;;10.90;2.10;;;14.80;99.90;;;;;;5058305;28;20059;-70
2022/07/08 00:23:28;;;;;;;11.65;2.13;;;14.70;99.90;;;;;;5058619;28;20112;-70
2022/07/08 00:25:53;;;;;;;8.52;1.75;;;14.70;99.90;;;;;;5075228;28;20464;-70
2022/07/08 00:28:19;;;;;;;5.88;1.42;;;14.70;99.90;;;;;;5076075;28;20032;-70
2022/07/08 00:30:44;;;;;;;5.07;1.83;;;14.70;99.90;;;;;;5058311;28;20471;-70
2022/07/08 00:33:10;;;;;;;12.27;1.67;;;14.70;99.90;;;;;;5058124;28;20453;-70
2022/07/08 00:35:44;;;;;;;7.45;1.67;;;14.70;99.90;;;;;;5075514;28;20338;-70
2022/07/08 00:38:13;;;;;;;7.22;1.65;;;14.70;99.90;;;;;;5058049;28;20037;-70
2022/07/08 00:40:41;;;;;;;12.00;2.55;;;14.70;99.90;;;;;;5058305;28;20093;-70
2022/07/08 00:43:07;;;;;;;6.03;1.85;;;14.60;99.90;;;;;;5041676;28;20390;-70
2022/07/08 00:45:32;;;;;;;6.65;1.60;;;14.70;99.90;;;;;;5076794;28;20041;-71
2022/07/08 00:47:58;;;;;;;6.57;1.52;;;14.60;99.90;;;;;;5061949;28;20048;-70
2022/07/08 00:50:24;;;;;;;6.35;1.63;;;14.50;99.90;;;;;;5095893;28;20184;-70
2022/07/08 00:52:49;;;;;;;6.63;1.75;;;14.50;99.90;;;;;;5066978;28;20053;-70
2022/07/08 00:55:15;;;;;;;5.93;1.70;;;14.50;99.90;;;;;;5058002;28;20048;-70
2022/07/08 00:57:41;;;;;;;16.35;2.55;;;14.40;99.90;;;;;;5053692;28;20110;-70
2022/07/08 01:00:08;;;;;;;4.72;1.30;;;14.40;99.90;;;;;;5055553;28;20056;-70
2022/07/08 01:02:34;;;;;;;5.47;1.42;;;14.30;99.90;;;;;;5037341;28;20064;-70
2022/07/08 01:04:59;;;;;;;12.77;1.92;;;14.20;99.90;;;;;;5055095;28;20037;-70
2022/07/08 01:07:25;;;;;;;7.68;1.45;;;14.20;99.90;;;;;;5054353;28;20127;-70
2022/07/08 01:09:53;;;;;;;3.33;1.23;;;14.10;99.90;;;;;;5057822;28;20094;-70
2022/07/08 01:12:20;;;;;;;4.05;1.52;;;14.00;99.90;;;;;;5057436;28;20040;-70
2022/07/08 01:14:45;;;;;;;10.27;1.83;;;14.00;99.90;;;;;;5057492;28;20102;-71
2022/07/08 01:17:11;;;;;;;6.47;1.27;;;14.10;99.90;;;;;;5061854;28;20497;-70
2022/07/08 01:19:36;;;;;;;7.38;1.83;;;14.00;99.90;;;;;;5037331;28;20053;-70
2022/07/08 01:22:03;;;;;;;5.75;1.65;;;14.00;99.90;;;;;;5020976;28;20041;-70
2022/07/08 01:24:28;;;;;;;5.53;1.13;;;14.00;99.90;;;;;;5055516;28;20104;-70
2022/07/08 01:26:56;;;;;;;9.55;1.77;;;13.90;99.90;;;;;;5065813;28;20475;-70
2022/07/08 01:29:21;;;;;;;4.97;1.58;;;13.80;99.90;;;;;;5052986;28;20481;-71
2022/07/08 01:31:52;;;;;;;7.82;1.60;;;13.80;99.90;;;;;;5037485;28;20053;-70
2022/07/08 01:34:18;;;;;;;5.72;1.73;;;13.70;99.90;;;;;;5054949;28;20055;-70
2022/07/08 01:36:43;;;;;;;5.18;1.40;;;13.50;99.90;;;;;;5047068;28;20123;-70
2022/07/08 01:39:12;;;;;;;5.80;1.67;;;13.60;99.90;;;;;;5074831;28;20037;-70
2022/07/08 01:41:37;;;;;;;6.05;1.33;;;13.60;99.90;;;;;;5075057;28;20045;-70
2022/07/08 01:44:03;;;;;;;4.90;1.60;;;13.50;99.90;;;;;;5057041;28;20482;-70
2022/07/08 01:46:28;;;;;;;6.32;1.83;;;13.50;99.90;;;;;;5052950;28;20059;-70
2022/07/08 01:48:54;;;;;;;4.95;1.48;;;13.40;99.90;;;;;;5054813;28;20037;-70
2022/07/08 01:51:20;;;;;;;10.75;2.15;;;13.50;99.90;;;;;;5054813;28;20040;-70
2022/07/08 01:53:45;;;;;;;7.85;1.67;;;13.50;99.90;;;;;;5055206;28;20114;-70
2022/07/08 01:56:11;;;;;;;7.93;1.60;;;13.50;99.90;;;;;;5062288;28;20105;-70
2022/07/08 01:58:39;;;;;;;3.78;1.42;;;13.60;99.90;;;;;;5076993;28;20052;-70
2022/07/08 02:01:05;;;;;;;5.45;1.40;;;13.60;99.90;;;;;;5076908;28;20055;-70
2022/07/08 02:03:30;;;;;;;7.28;2.47;;;13.60;99.90;;;;;;5076877;28;20441;-70
2022/07/08 02:05:56;;;;;;;6.47;1.67;;;13.60;99.90;;;;;;5092166;28;20048;-70
2022/07/08 02:08:23;;;;;;;3.90;1.27;;;13.60;99.90;;;;;;5074267;28;20055;-70
2022/07/08 02:13:33;;;;;;;4.00;1.33;;;13.50;99.90;;;;;;5074561;28;20127;-70
2022/07/08 02:15:58;;;;;;;8.88;1.85;;;13.50;99.90;;;;;;5058842;28;20476;-70
2022/07/08 02:18:24;;;;;;;5.55;1.60;;;13.40;99.90;;;;;;5076799;28;20048;-70
2022/07/08 02:20:50;;;;;;;4.65;1.38;;;13.40;99.90;;;;;;5094762;28;20469;-70
2022/07/08 02:23:16;;;;;;;12.80;2.60;;;13.40;99.90;;;;;;5077163;28;20488;-70
2022/07/08 02:25:42;;;;;;;6.18;1.65;;;13.30;99.90;;;;;;5076639;28;20052;-71
2022/07/08 02:28:07;;;;;;;9.70;2.42;;;13.20;99.90;;;;;;5074224;28;20049;-70
2022/07/08 02:30:33;;;;;;;4.55;1.45;;;13.10;99.90;;;;;;5057579;28;20045;-70
2022/07/08 02:32:58;;;;;;;7.75;1.67;;;13.10;99.90;;;;;;5056779;28;20106;-70
2022/07/08 02:35:24;;;;;;;10.70;2.25;;;13.10;99.90;;;;;;5056649;28;20040;-70
2022/07/08 02:37:49;;;;;;;5.00;1.40;;;13.00;99.90;;;;;;5056645;28;20052;-70
2022/07/08 02:40:15;;;;;;;10.43;2.10;;;13.00;99.90;;;;;;5056599;28;20055;-71
2022/07/08 02:42:41;;;;;;;7.63;1.70;;;12.90;99.90;;;;;;5074239;28;20063;-70
2022/07/08 02:45:07;;;;;;;7.32;2.10;;;12.90;99.90;;;;;;5056358;28;20444;-70
2022/07/08 02:47:33;;;;;;;6.20;1.80;;;12.90;99.90;;;;;;5074038;28;20119;-70
2022/07/08 02:49:59;;;;;;;7.00;2.15;;;12.80;99.90;;;;;;5075527;28;20067;-70
2022/07/08 02:52:24;;;;;;;4.78;1.67;;;12.80;99.90;;;;;;5077731;28;20040;-70
2022/07/08 02:54:50;;;;;;;3.40;1.65;;;12.80;99.90;;;;;;5077936;28;20076;-70
2022/07/08 02:57:16;;;;;;;8.75;2.17;;;12.70;99.90;;;;;;5059042;28;20161;-71
2022/07/08 02:59:41;;;;;;;8.35;2.58;;;12.70;99.90;;;;;;5060072;28;20051;-70
2022/07/08 03:02:10;;;;;;;7.60;1.63;;;12.70;99.90;;;;;;5077511;28;20037;-70
2022/07/08 03:04:36;;;;;;;4.80;1.65;;;12.60;99.90;;;;;;5059890;28;20130;-70
2022/07/08 03:07:01;;;;;;;9.18;1.60;;;12.70;99.90;;;;;;5070139;28;20471;-70
2022/07/08 03:09:27;;;;;;;4.03;1.30;;;12.70;99.90;;;;;;5097862;28;20075;-71
2022/07/08 03:11:52;;;;;;;7.28;2.17;;;12.70;99.90;;;;;;5080059;28;20144;-70
2022/07/08 03:14:18;;;;;;;6.68;1.75;;;12.70;99.90;;;;;;5079629;28;20471;-70
2022/07/08 03:16:43;;;;;;;7.13;1.98;;;12.70;99.90;;;;;;5089969;28;20036;-70
2022/07/08 03:19:12;;;;;;;10.07;1.50;;;12.80;99.90;;;;;;5077537;28;20049;-70
2022/07/08 03:21:38;;;;;;;10.73;1.90;;;12.80;99.90;;;;;;5077308;28;20052;-70
2022/07/08 03:24:03;;;;;;;4.57;1.88;;;12.80;99.90;;;;;;5059586;28;20066;-71
2022/07/08 03:26:29;;;;;;;4.10;1.38;;;12.80;99.90;;;;;;5081659;28;20055;-70
2022/07/08 03:28:55;;;;;;;10.43;1.95;;;12.70;99.90;;;;;;5080081;28;20097;-70
2022/07/08 03:31:20;;;;;;;4.57;1.58;;;12.70;99.90;;;;;;5080418;28;20058;-70
2022/07/08 03:33:46;;;;;;;3.50;1.60;;;12.70;99.90;;;;;;5097516;28;20467;-70
2022/07/08 03:36:11;;;;;;;5.60;1.70;;;12.60;99.90;;;;;;5076379;28;20044;-70
2022/07/08 03:38:37;;;;;;;3.55;1.60;;;12.60;99.90;;;;;;5059628;28;20513;-70
2022/07/08 03:41:21;;;;;;;7.85;1.85;;;12.50;99.90;;;;;;5059607;28;20044;-70
2022/07/08 03:43:48;;;;;;;9.98;1.77;;;12.60;99.90;;;;;;5059117;28;20048;-70
2022/07/08 03:46:14;;;;;;;8.80;2.45;;;12.50;99.90;;;;;;5061877;28;20028;-70
2022/07/08 03:48:39;;;;;;;6.43;1.88;;;12.60;99.90;;;;;;5097406;28;20040;-70
2022/07/08 03:51:05;;;;;;;9.60;1.88;;;12.50;99.90;;;;;;5097486;28;20040;-70
2022/07/08 03:53:31;;;;;;;8.60;1.98;;;12.50;99.90;;;;;;5062691;28;20373;-70
2022/07/08 03:55:57;;;;;;;7.43;2.40;;;12.50;99.90;;;;;;5076065;28;20119;-70
2022/07/08 03:58:22;;;;;;;10.65;2.05;;;12.50;99.90;;;;;;5056607;28;20167;-70
2022/07/08 04:00:48;;;;;;;9.35;2.60;;;12.50;99.90;;;;;;5038918;28;20057;-70
2022/07/08 04:03:13;;;;;;;10.05;2.00;;;12.50;99.90;;;;;;5072438;28;20428;-70
2022/07/08 04:05:39;;;;;;;5.22;2.05;;;12.50;99.90;;;;;;5039011;28;20037;-70
2022/07/08 04:08:05;;;;;;;15.90;2.30;;;12.60;99.90;;;;;;5073842;28;20051;-70
2022/07/08 04:10:31;;;;;;;10.65;2.03;;;12.60;99.90;;;;;;5058464;28;20101;-70
2022/07/08 04:12:56;;;;;;;7.63;1.73;;;12.60;99.90;;;;;;5076470;28;20036;-70
2022/07/08 04:15:22;;;;;;;8.13;2.15;;;12.70;99.90;;;;;;5076474;28;20457;-70
2022/07/08 04:17:48;;;;;;;9.25;2.08;;;12.80;99.90;;;;;;5054002;28;20091;-70
2022/07/08 04:20:15;;;;;;;6.30;1.70;;;12.80;99.90;;;;;;5040434;28;20068;-69
2022/07/08 04:22:40;;;;;;;6.88;1.90;;;12.90;99.90;;;;;;5076119;28;20120;-70
2022/07/08 04:25:09;;;;;;;10.48;1.83;;;13.00;99.90;;;;;;5087627;28;20118;-70
2022/07/08 04:27:38;;;;;;;4.20;1.65;;;13.00;99.90;;;;;;5069363;28;20532;-70
2022/07/08 04:30:04;;;;;;;8.30;2.22;;;13.10;99.90;;;;;;5057872;28;20132;-70
2022/07/08 04:32:30;;;;;;;7.60;1.95;;;13.00;99.90;;;;;;5058545;28;20357;-70
2022/07/08 04:35:13;;;;;;;7.20;1.98;;;13.00;99.90;;;;;;5058579;28;20051;-70
2022/07/08 04:37:39;;;;;;;6.35;1.90;;;13.10;99.90;;;;;;5041943;28;20372;-70
2022/07/08 04:40:05;;;;;;;11.32;1.88;;;13.10;99.90;;;;;;5054567;28;20041;-70
2022/07/08 04:42:30;;;;;;;5.28;1.77;;;13.20;99.90;;;;;;5038512;28;20128;-70
2022/07/08 04:44:56;;;;;;;13.48;2.35;;;13.10;99.90;;;;;;5037880;28;20577;-70
2022/07/08 04:47:22;;;;;;;9.77;2.85;;;13.20;99.90;;;;;;5055763;28;20037;-70
2022/07/08 04:49:47;;;;;;;9.25;2.50;;;13.30;99.90;;;;;;5055562;28;20051;-70
2022/07/08 04:52:13;;;;;;;9.93;2.17;;;13.50;99.90;;;;;;5043351;28;20052;-70
2022/07/08 04:54:41;;;;;;;5.82;1.88;;;13.70;99.90;;;;;;5057804;28;20052;-70
2022/07/08 04:57:09;;;;;;;11.07;2.58;;;13.90;99.90;;;;;;5061076;28;20048;-70
2022/07/08 04:59:35;;;;;;;6.90;2.35;;;14.20;99.90;;;;;;5061127;28;20036;-70
2022/07/08 05:02:02;;;;;;;9.15;2.17;;;14.50;99.90;;;;;;5058621;28;20052;-70
2022/07/08 05:04:28;;;;;;;11.93;2.10;;;14.70;99.90;;;;;;5058055;28;20040;-69
2022/07/08 05:06:54;;;;;;;6.15;2.00;;;14.90;99.90;;;;;;5041731;28;20075;-70
2022/07/08 05:09:20;;;;;;;12.07;1.85;;;15.10;99.90;;;;;;5075025;28;20437;-70
2022/07/08 05:11:45;;;;;;;7.25;1.85;;;15.20;99.90;;;;;;5057816;28;20032;-69
2022/07/08 05:14:13;;;;;;;10.52;2.10;;;15.40;99.90;;;;;;5057444;28;20036;-69
2022/07/08 05:16:40;;;;;;;14.27;1.83;;;15.50;99.90;;;;;;5057506;28;20052;-69
2022/07/08 05:19:06;;;;;;;5.18;1.85;;;15.60;99.90;;;;;;5074752;28;20056;-70
2022/07/08 05:21:32;;;;;;;6.97;1.85;;;15.80;99.90;;;;;;5057473;28;20078;-71
2022/07/08 05:23:58;;;;;;;11.18;1.90;;;16.00;99.90;;;;;;5058408;28;20087;-69
2022/07/08 05:26:23;;;;;;;8.13;1.92;;;16.20;99.90;;;;;;5084205;28;20044;-69
2022/07/08 05:28:49;;;;;;;10.70;2.17;;;17.00;99.90;;;;;;5078772;28;20123;-69
2022/07/08 05:31:14;;;;;;;10.35;2.13;;;18.50;99.90;;;;;;5076726;28;20044;-69
2022/07/08 05:33:40;;;;;;;7.70;1.38;;;19.50;99.90;;;;;;5076466;28;20047;-69
2022/07/08 05:36:06;;;;;;;7.82;1.60;;;20.70;99.90;;;;;;5076616;28;20059;-69
2022/07/08 05:38:32;;;;;;;9.15;2.60;;;21.90;99.90;;;;;;5083059;28;20052;-70
2022/07/08 05:40:58;;;;;;;7.05;1.65;;;22.80;99.90;;;;;;5040856;28;20491;-69
2022/07/08 05:43:23;;;;;;;8.13;1.65;;;23.60;99.90;;;;;;5074398;28;20048;-69
2022/07/08 05:45:49;;;;;;;8.13;1.67;;;24.20;99.90;;;;;;5056879;28;20540;-69
2022/07/08 05:48:15;;;;;;;8.95;1.90;;;24.20;99.90;;;;;;5057031;28;20087;-69
2022/07/08 05:50:40;;;;;;;4.45;1.23;;;24.60;99.90;;;;;;5039924;28;20055;-69
2022/07/08 05:53:06;;;;;;;5.20;1.17;;;24.00;99.90;;;;;;5056453;28;20097;-69
2022/07/08 05:55:31;;;;;;;3.95;1.10;;;23.70;99.90;;;;;;5056419;28;20358;-70
2022/07/08 05:57:57;;;;;;;5.75;1.40;;;24.50;99.90;;;;;;5064793;28;20040;-69
2022/07/08 06:00:23;;;;;;;8.55;1.45;;;24.90;99.20;;;;;;5076904;28;20044;-69
2022/07/08 06:02:49;;;;;;;3.85;1.25;;;25.30;98.80;;;;;;5094675;28;20059;-70
2022/07/08 06:05:15;;;;;;;6.13;1.20;;;24.90;99.40;;;;;;5076525;28;20036;-69
2022/07/08 06:07:41;;;;;;;7.30;1.30;;;24.00;99.50;;;;;;5072164;28;20054;-71
2022/07/08 06:10:09;;;;;;;9.15;1.95;;;23.00;99.90;;;;;;5074113;28;20135;-70
2022/07/08 06:12:35;;;;;;;6.47;1.10;;;22.20;99.90;;;;;;5073759;28;20037;-71
2022/07/08 06:15:01;;;;;;;7.60;1.40;;;21.70;99.90;;;;;;5056266;28;20041;-70
2022/07/08 06:17:26;;;;;;;4.32;1.17;;;21.30;99.90;;;;;;5060570;28;20047;-71
2022/07/08 06:19:52;;;;;;;6.20;1.35;;;20.90;99.90;;;;;;5076419;28;20099;-70
2022/07/08 06:22:17;;;;;;;5.68;1.15;;;20.70;99.90;;;;;;5093916;28;20032;-70
2022/07/08 06:24:43;;;;;;;4.82;1.60;;;20.60;99.90;;;;;;5077569;28;20047;-70
2022/07/08 06:27:12;;;;;;;8.13;1.40;;;20.50;99.90;;;;;;5096535;28;20047;-70
2022/07/08 06:29:37;;;;;;;5.20;1.35;;;20.40;99.90;;;;;;5077951;28;20044;-70
2022/07/08 06:32:04;;;;;;;9.13;1.75;;;20.40;99.90;;;;;;5077783;28;20464;-70
2022/07/08 06:34:30;;;;;;;8.55;1.45;;;20.40;99.90;;;;;;5059749;28;20036;-70
2022/07/08 06:36:55;;;;;;;4.22;1.10;;;20.30;99.90;;;;;;5060046;28;20517;-70
2022/07/08 06:39:21;;;;;;;7.65;2.00;;;20.10;99.90;;;;;;5060438;28;20430;-69
2022/07/08 06:41:46;;;;;;;5.28;1.38;;;19.90;99.90;;;;;;5060092;28;20052;-69
2022/07/08 06:44:12;;;;;;;7.22;1.75;;;19.90;99.90;;;;;;5060379;28;20059;-69
2022/07/08 06:46:38;;;;;;;5.90;1.40;;;19.60;99.90;;;;;;5059619;28;20431;-70
2022/07/08 06:49:03;;;;;;;8.57;1.42;;;19.70;99.90;;;;;;5075649;28;20139;-69
2022/07/08 06:51:29;;;;;;;4.95;1.60;;;19.80;99.90;;;;;;5080284;28;20106;-69
2022/07/08 06:56:41;;;;;;;4.82;1.42;;;19.90;99.90;;;;;;5097350;28;20055;-69
2022/07/08 06:59:07;;;;;;;5.25;1.42;;;19.90;99.90;;;;;;5073530;28;20055;-69
2022/07/08 07:01:33;;;;;;;9.27;1.60;;;20.10;99.90;;;;;;5043327;28;20052;-69
2022/07/08 07:03:59;;;;;;;10.35;1.58;;;20.10;99.90;;;;;;5077071;28;20387;-69
2022/07/08 07:06:24;;;;;;;9.98;1.33;;;20.00;99.90;;;;;;5076868;28;20063;-70
2022/07/08 07:08:50;;;;;;;7.43;1.73;;;20.30;99.90;;;;;;5076884;28;20041;-69
2022/07/08 07:11:15;;;;;;;7.20;1.42;;;20.60;99.90;;;;;;5077339;28;20041;-69
2022/07/08 07:13:41;;;;;;;11.27;1.63;;;20.60;99.90;;;;;;5059749;28;20425;-70
2022/07/08 07:16:07;;;;;;;6.50;1.38;;;20.50;99.90;;;;;;5057255;28;20073;-70
2022/07/08 07:18:33;;;;;;;9.45;1.98;;;20.40;99.90;;;;;;5088201;28;20043;-70
2022/07/08 07:20:58;;;;;;;10.50;2.03;;;20.10;99.90;;;;;;5083121;28;20117;-70
2022/07/08 07:23:24;;;;;;;5.88;1.23;;;20.00;99.90;;;;;;5092008;28;20048;-69
2022/07/08 07:25:49;;;;;;;9.32;1.83;;;20.20;99.90;;;;;;5075146;28;20044;-69
2022/07/08 07:28:15;;;;;;;8.23;1.88;;;20.20;99.90;;;;;;5077218;28;20033;-70
2022/07/08 07:30:41;;;;;;;5.20;1.40;;;20.40;99.90;;;;;;5081082;28;20062;-70
2022/07/08 07:33:06;;;;;;;9.73;1.23;;;20.50;99.90;;;;;;5096584;28;20463;-69
2022/07/08 07:35:32;;;;;;;9.55;1.70;;;20.40;99.90;;;;;;5081068;28;20123;-69
2022/07/08 07:37:57;;;;;;;6.47;1.65;;;20.50;99.90;;;;;;5088355;28;20048;-69
2022/07/08 07:40:23;;;;;;;7.35;1.55;;;20.50;99.90;;;;;;5092071;28;20044;-70
2022/07/08 07:42:48;;;;;;;10.15;2.03;;;20.50;99.90;;;;;;5096905;28;20043;-69
2022/07/08 07:45:14;;;;;;;8.30;1.50;;;20.50;99.90;;;;;;5079019;28;20391;-69
2022/07/08 07:47:39;;;;;;;5.55;1.40;;;20.60;99.90;;;;;;5079070;28;20048;-70
2022/07/08 07:50:05;;;;;;;3.08;1.20;;;20.60;99.90;;;;;;5077346;28;20079;-69
2022/07/08 07:52:31;;;;;;;6.38;1.20;;;20.70;99.90;;;;;;5067583;28;20052;-70
2022/07/08 07:54:56;;;;;;;7.63;1.65;;;20.70;99.90;;;;;;5058933;28;20052;-70
2022/07/08 07:57:22;;;;;;;7.68;1.42;;;20.70;99.90;;;;;;5076454;28;20411;-70
2022/07/08 07:59:48;;;;;;;8.52;1.48;;;20.60;99.90;;;;;;5042038;28;20040;-70
2022/07/08 08:02:13;;;;;;;11.82;1.95;;;20.70;99.90;;;;;;5075994;28;20037;-69
2022/07/08 08:04:39;;;;;;;12.05;1.70;;;20.70;99.90;;;;;;5058103;28;20071;-69
2022/07/08 08:07:04;;;;;;;8.05;1.40;;;20.70;99.90;;;;;;5076487;28;20036;-69
2022/07/08 08:09:30;;;;;;;8.50;1.38;;;20.60;99.90;;;;;;5058474;28;20409;-70
2022/07/08 08:11:55;;;;;;;5.90;1.42;;;20.50;99.90;;;;;;5071317;28;20044;-71
2022/07/08 08:14:21;;;;;;;5.90;1.20;;;20.50;99.90;;;;;;5075752;28;20063;-70
2022/07/08 08:16:47;;;;;;;4.53;1.65;;;20.40;99.90;;;;;;5079328;28;20108;-68
2022/07/08 08:19:12;;;;;;;4.05;1.20;;;20.40;99.90;;;;;;5093627;28;20466;-70
2022/07/08 08:21:38;;;;;;;9.43;1.50;;;20.40;99.90;;;;;;5096711;28;20060;-70
2022/07/08 08:24:04;;;;;;;7.55;1.83;;;20.40;99.90;;;;;;5079911;28;20043;-69
2022/07/08 08:26:30;;;;;;;3.42;1.67;;;20.50;99.90;;;;;;5081397;28;20039;-70
2022/07/08 08:28:56;;;;;;;8.13;1.50;;;20.40;99.90;;;;;;5092167;28;20135;-69
2022/07/08 08:31:21;;;;;;;3.65;1.40;;;20.50;99.90;;;;;;5098784;28;20096;-69
2022/07/08 08:33:47;;;;;;;3.35;0.90;;;20.70;99.90;;;;;;5103951;28;20031;-68
2022/07/08 08:36:13;;;;;;;6.10;1.50;;;20.80;99.90;;;;;;5066896;28;20051;-69
2022/07/08 08:38:38;;;;;;;3.88;1.48;;;21.00;99.90;;;;;;5057916;28;20036;-69
2022/07/08 08:41:11;;;;;;;7.75;1.15;;;21.10;99.90;;;;;;5058145;28;20040;-69
2022/07/08 08:43:36;;;;;;;7.45;1.85;;;21.10;99.90;;;;;;5077580;28;20044;-69
2022/07/08 08:46:02;;;;;;;4.40;1.02;;;21.00;99.90;;;;;;5077893;28;20094;-69
2022/07/08 08:48:41;;;;;;;12.18;1.67;;;21.10;99.90;;;;;;5094039;28;20032;-69
2022/07/08 08:51:11;;;;;;;5.05;1.20;;;21.10;99.90;;;;;;5061108;28;20052;-70
2022/07/08 08:53:42;;;;;;;5.97;1.73;;;21.10;99.90;;;;;;5074301;28;20056;-69
2022/07/08 08:56:12;;;;;;;7.18;1.38;;;21.10;99.90;;;;;;5056912;28;20048;-69
2022/07/08 08:58:46;;;;;;;4.35;1.45;;;21.10;99.90;;;;;;5069136;28;20094;-69
2022/07/08 09:01:13;;;;;;;4.93;1.20;;;21.00;99.90;;;;;;5078022;28;20364;-69
2022/07/08 09:03:39;;;;;;;3.72;1.42;;;21.10;99.90;;;;;;5095182;28;20036;-70
2022/07/08 09:06:06;;;;;;;4.85;1.35;;;21.20;99.90;;;;;;5095338;28;20043;-69
2022/07/08 09:08:32;;;;;;;6.93;1.50;;;21.20;99.90;;;;;;5073042;28;20040;-69
2022/07/08 09:10:58;;;;;;;7.97;1.63;;;21.30;99.90;;;;;;5057236;28;20049;-69
2022/07/08 09:13:25;;;;;;;7.15;1.95;;;21.30;99.90;;;;;;5057265;28;20044;-70
2022/07/08 09:15:55;;;;;;;7.47;2.10;;;21.30;99.90;;;;;;5075139;28;20048;-70
2022/07/08 09:18:25;;;;;;;5.82;1.63;;;21.20;99.90;;;;;;5048457;28;20338;-69
2022/07/08 09:20:53;;;;;;;5.07;1.13;;;21.20;99.90;;;;;;5092727;28;20040;-70
2022/07/08 09:23:26;;;;;;;6.63;1.50;;;21.20;99.90;;;;;;5076748;28;20075;-69
2022/07/08 09:25:54;;;;;;;6.53;1.42;;;21.40;99.90;;;;;;5077027;28;20043;-70
2022/07/08 09:28:38;;;;;;;9.35;1.80;;;21.60;99.90;;;;;;5077111;28;20414;-69
2022/07/08 09:31:05;;;;;;;4.13;1.33;;;21.70;99.90;;;;;;5073240;28;20048;-71
2022/07/08 09:33:32;;;;;;;3.47;1.55;;;21.70;99.90;;;;;;5068268;28;20040;-72
2022/07/08 09:36:00;;;;;;;6.40;1.23;;;21.60;99.90;;;;;;5056077;28;20120;-71
2022/07/08 09:38:30;;;;;;;5.50;1.58;;;21.60;99.90;;;;;;5074940;28;20036;-71
2022/07/08 09:41:04;;;;;;;6.57;1.70;;;21.60;99.90;;;;;;5057368;28;20361;-71
2022/07/08 09:43:32;;;;;;;5.80;1.05;;;21.60;99.90;;;;;;5075015;28;20032;-71
2022/07/08 09:46:05;;;;;;;5.65;1.55;;;21.70;99.90;;;;;;5056696;28;20068;-71
2022/07/08 09:48:31;;;;;;;;;;;21.60;99.90;;;;;;5057021;28;20115;-72
2022/07/08 09:51:00;;;;;;;4.95;1.30;;;21.80;99.90;;;;;;5073492;28;20012;-71
2022/07/08 09:53:27;;;;;;;4.63;1.58;;;21.80;99.90;;;;;;5076527;28;20051;-70
2022/07/08 09:55:55;;;;;;;7.03;1.55;;;22.10;99.90;;;;;;5070070;28;20051;-72
2022/07/08 09:58:23;;;;;;;5.68;1.70;;;22.30;99.90;;;;;;5068163;28;20063;-70
2022/07/08 10:00:50;;;;;;;6.10;1.40;;;22.30;99.90;;;;;;5100985;28;20056;-70
2022/07/08 10:03:17;;;;;;;6.25;1.33;;;22.30;99.90;;;;;;5095704;28;20448;-71
2022/07/08 10:05:43;;;;;;;6.47;1.33;;;22.30;99.90;;;;;;5079900;28;20056;-72
2022/07/08 10:08:13;;;;;;;3.55;1.50;;;22.40;99.90;;;;;;5081327;28;20342;-71
2022/07/08 10:10:41;;;;;;;4.97;1.23;;;22.30;99.90;;;;;;5081369;28;20028;-69
2022/07/08 10:13:07;;;;;;;10.43;2.13;;;22.20;99.90;;;;;;5069001;28;20046;-69
2022/07/08 10:15:36;;;;;;;7.10;1.65;;;22.20;99.90;;;;;;5087164;28;20484;-70
2022/07/08 10:18:25;;;;;;;5.15;1.67;;;22.20;99.90;;;;;;5063412;28;20361;-70
2022/07/08 10:20:54;;;;;;;4.65;1.38;;;22.20;99.90;;;;;;5081550;28;20456;-70
2022/07/08 10:23:27;;;;;;;6.95;1.30;;;22.40;99.90;;;;;;5079391;28;20365;-71
2022/07/08 10:25:56;;;;;;;5.43;1.70;;;22.50;99.90;;;;;;5064500;28;20048;-71
2022/07/08 10:28:42;;;;;;;4.43;1.58;;;22.70;99.90;;;;;;5063380;28;20071;-71
2022/07/08 10:31:24;;;;;;;7.18;1.52;;;23.00;99.90;;;;;;5063194;28;20036;-71
2022/07/08 10:33:50;;;;;;;6.30;1.70;;;23.40;99.90;;;;;;5063445;28;20041;-72
2022/07/08 10:36:21;;;;;;;4.20;1.50;;;23.60;99.90;;;;;;5062188;28;20051;-71
2022/07/08 10:38:48;;;;;;;7.53;1.33;;;23.80;99.90;;;;;;5062398;28;20059;-69
2022/07/08 10:41:19;;;;;;;5.82;1.30;;;23.90;99.90;;;;;;5074744;28;20063;-70
2022/07/08 10:43:55;;;;;;;5.10;1.65;;;23.80;99.90;;;;;;5080563;28;20478;-70
2022/07/08 10:46:24;;;;;;;5.05;1.50;;;23.70;99.90;;;;;;5080657;28;20037;-71
2022/07/08 10:48:54;;;;;;;5.93;1.58;;;23.80;99.90;;;;;;5080675;28;20048;-70
2022/07/08 10:51:20;;;;;;;4.40;1.35;;;23.90;99.90;;;;;;5078640;28;20040;-71
2022/07/08 10:53:47;;;;;;;5.60;1.70;;;23.70;99.90;;;;;;5083051;28;20056;-70
2022/07/08 10:56:33;;;;;;;5.45;1.83;;;23.70;99.90;;;;;;5066187;28;20363;-71
2022/07/08 10:59:28;;;;;;;4.72;1.50;;;23.70;99.90;;;;;;5082200;28;20440;-71
2022/07/08 11:02:13;;;;;;;5.45;1.30;;;24.00;99.90;;;;;;5082464;28;20036;-70
2022/07/08 11:04:53;;;;;;;6.00;1.52;;;24.20;99.90;;;;;;5099390;28;20044;-71
2022/07/08 11:07:28;;;;;;;6.32;1.73;;;24.40;99.90;;;;;;5100242;28;20061;-71
2022/07/08 11:10:04;;;;;;;5.20;1.50;;;24.50;99.90;;;;;;5078075;28;20059;-71
2022/07/08 11:12:35;;;;;;;7.10;1.50;;;24.60;99.90;;;;;;5071221;28;20059;-71
2022/07/08 11:15:03;;;;;;;7.90;1.50;;;24.60;99.90;;;;;;5097776;28;20051;-70
2022/07/08 11:17:34;;;;;;;5.55;1.48;;;24.50;99.90;;;;;;5062802;28;20133;-70
2022/07/08 11:20:04;;;;;;;5.03;1.60;;;24.60;99.90;;;;;;5092591;28;20044;-70
2022/07/08 11:22:34;;;;;;;5.10;1.27;;;24.50;99.90;;;;;;5076908;28;20040;-70
2022/07/08 11:25:01;;;;;;;3.92;1.65;;;24.70;99.90;;;;;;5059221;28;20363;-70
2022/07/08 11:27:28;;;;;;;6.75;1.45;;;24.90;99.90;;;;;;5059292;28;20056;-70
2022/07/08 11:29:55;;;;;;;7.75;1.73;;;25.00;99.90;;;;;;5062179;28;20055;-71
2022/07/08 11:32:22;;;;;;;3.45;1.60;;;25.20;99.90;;;;;;5081188;28;20457;-73
2022/07/08 11:34:49;;;;;;;4.30;1.27;;;25.20;99.90;;;;;;5096783;28;20109;-71
2022/07/08 11:37:15;;;;;;;5.22;1.33;;;25.40;99.90;;;;;;5117357;28;20054;-71
2022/07/08 11:39:45;;;;;;;4.28;1.52;;;25.40;99.90;;;;;;5097424;28;20036;-73
2022/07/08 11:42:12;;;;;;;7.75;1.60;;;25.10;99.90;;;;;;5079227;28;20052;-72
2022/07/08 11:44:38;;;;;;;6.45;1.08;;;25.10;99.90;;;;;;5078997;28;20132;-72
2022/07/08 11:47:04;;;;;;;6.32;1.50;;;25.20;99.90;;;;;;5078588;28;20085;-72
2022/07/08 11:49:30;;;;;;;7.03;1.50;;;25.30;99.90;;;;;;5078600;28;20101;-72
2022/07/08 11:51:57;;;;;;;6.93;1.35;;;25.00;99.90;;;;;;5074631;28;20048;-71
2022/07/08 11:54:28;;;;;;;6.07;1.65;;;24.80;99.90;;;;;;5058529;28;20120;-73
2022/07/08 11:56:57;;;;;;;7.45;1.30;;;24.40;99.90;;;;;;5076726;28;20361;-71
2022/07/08 11:59:29;;;;;;;8.05;2.60;;;24.50;99.90;;;;;;5059110;28;20048;-71
2022/07/08 12:01:57;;;;;;;3.60;1.10;;;24.90;99.90;;;;;;5077639;28;20115;-70
2022/07/08 12:04:23;;;;;;;6.68;1.70;;;25.20;99.90;;;;;;5078786;28;20461;-70
2022/07/08 12:06:54;;;;;;;3.60;1.17;;;25.20;99.90;;;;;;5078297;28;20048;-70
2022/07/08 12:09:25;;;;;;;5.18;1.27;;;25.40;99.90;;;;;;5078321;28;20075;-71
2022/07/08 12:11:56;;;;;;;4.13;1.27;;;25.60;99.90;;;;;;5074218;28;20048;-72
2022/07/08 12:14:23;;;;;;;4.60;1.25;;;26.00;99.90;;;;;;5058547;28;20052;-72
2022/07/08 12:16:53;;;;;;;3.10;1.15;;;26.10;99.90;;;;;;5076121;28;20044;-71
2022/07/08 12:19:29;;;;;;;6.65;2.00;;;26.30;99.90;;;;;;5058390;28;20052;-72
2022/07/08 12:22:00;;;;;;;8.10;1.38;;;26.40;99.90;;;;;;5076302;28;20405;-72
2022/07/08 12:24:34;;;;;;;3.83;1.20;;;26.40;99.90;;;;;;5077447;28;20048;-71
2022/07/08 12:27:02;;;;;;;5.78;1.50;;;26.30;99.90;;;;;;5078284;28;20055;-70
2022/07/08 12:29:32;;;;;;;6.45;1.85;;;26.20;99.90;;;;;;5095911;28;20379;-70
2022/07/08 12:31:57;;;;;;;4.38;1.60;;;26.40;99.90;;;;;;5070900;28;20512;-70
2022/07/08 12:34:24;;;;;;;4.20;1.50;;;26.50;99.90;;;;;;5074171;28;20041;-70
2022/07/08 12:36:50;;;;;;;6.63;1.95;;;26.40;99.90;;;;;;5057639;28;20040;-70
2022/07/08 12:39:23;;;;;;;9.48;1.80;;;26.40;99.90;;;;;;5075412;28;20036;-70
2022/07/08 12:41:59;;;;;;;;;;;26.30;99.80;;;;;;5057354;28;20044;-70
2022/07/08 12:44:28;;;;;;;2.47;1.00;;;26.30;99.90;;;;;;5077440;28;19931;-70
2022/07/08 12:46:54;;;;;;;4.18;0.95;;;26.50;99.90;;;;;;5095630;28;20043;-70
2022/07/08 12:49:25;;;;;;;10.77;1.52;;;26.40;99.90;;;;;;5078091;28;20449;-69
2022/07/08 12:51:51;;;;;;;6.82;1.80;;;26.30;99.90;;;;;;5076814;28;20478;-71